createdAt,value
2019-03-11T00:02:04.783Z,1.60
2019-03-11T00:05:05.732Z,1.50
2019-03-11T00:08:07.891Z,1.50
2019-03-11T00:11:19.096Z,1.40
2019-03-11T00:14:21.171Z,1.40
2019-03-11T00:17:23.136Z,1.50
2019-03-11T00:20:24.382Z,1.60
2019-03-11T00:23:26.352Z,1.60
2019-03-11T00:26:28.368Z,1.60
2019-03-11T00:29:29.636Z,1.70
2019-03-11T00:32:40.657Z,1.70
2019-03-11T00:35:52.540Z,1.70
2019-03-11T00:38:54.572Z,1.80
2019-03-11T00:41:55.500Z,1.80
2019-03-11T00:45:06.456Z,1.80
2019-03-11T00:48:08.690Z,1.70
2019-03-11T00:51:09.779Z,2.10
2019-03-11T00:54:17.010Z,1.90
2019-03-11T00:57:17.950Z,1.90
2019-03-11T01:00:21.048Z,1.90
2019-03-11T01:03:23.107Z,2.00
2019-03-11T01:06:25.196Z,2.00
2019-03-11T01:09:26.426Z,2.00
2019-03-11T01:12:37.348Z,2.10
2019-03-11T01:15:48.510Z,2.00
2019-03-11T01:18:50.480Z,2.00
2019-03-11T01:21:52.463Z,1.90
2019-03-11T01:24:54.476Z,1.90
2019-03-11T01:27:56.308Z,2.00
2019-03-11T01:30:58.407Z,2.00
2019-03-11T01:34:00.426Z,1.90
2019-03-11T01:37:02.595Z,1.90
2019-03-11T01:40:04.742Z,1.90
2019-03-11T01:43:06.625Z,1.90
2019-03-11T01:46:08.668Z,1.80
2019-03-11T01:49:09.752Z,1.80
2019-03-11T01:52:20.802Z,1.80
2019-03-11T01:55:21.928Z,1.80
2019-03-11T01:58:23.926Z,1.80
2019-03-11T02:01:11.397Z,1.70
2019-03-11T02:04:12.835Z,1.80
2019-03-11T02:07:14.898Z,1.80
2019-03-11T02:10:16.951Z,1.80
2019-03-11T02:13:18.988Z,1.80
2019-03-11T02:16:20.900Z,1.80
2019-03-11T02:19:22.912Z,1.80
2019-03-11T02:22:24.075Z,1.70
2019-03-11T02:25:34.111Z,1.70
2019-03-11T02:28:45.151Z,1.70
2019-03-11T02:31:46.408Z,1.70
2019-03-11T02:34:57.676Z,1.90
2019-03-11T02:37:59.802Z,1.90
2019-03-11T02:41:01.767Z,1.80
2019-03-11T02:44:03.841Z,1.90
2019-03-11T02:47:06.170Z,1.90
2019-03-11T02:50:08.181Z,1.90
2019-03-11T02:53:10.213Z,1.90
2019-03-11T02:56:12.327Z,1.80
2019-03-11T02:59:14.029Z,1.90
2019-03-11T03:02:36.926Z,2.00
2019-03-11T03:06:00.946Z,2.10
2019-03-11T03:09:03.255Z,2.00
2019-03-11T03:12:07.306Z,2.00
2019-03-11T03:15:09.357Z,2.10
2019-03-11T03:18:10.572Z,2.00
2019-03-11T03:21:12.512Z,1.90
2019-03-11T03:24:15.535Z,1.90
2019-03-11T03:27:17.458Z,1.90
2019-03-11T03:30:18.773Z,1.90
2019-03-11T03:33:20.720Z,1.90
2019-03-11T03:36:22.720Z,1.90
2019-03-11T03:39:24.821Z,1.80
2019-03-11T03:42:25.888Z,1.70
2019-03-11T03:45:36.979Z,1.70
2019-03-11T03:48:39.192Z,1.80
2019-03-11T03:51:40.959Z,1.60
2019-03-11T03:54:43.176Z,1.60
2019-03-11T03:57:44.226Z,1.60
2019-03-11T04:00:55.423Z,1.60
2019-03-11T04:03:57.461Z,1.60
2019-03-11T04:06:59.536Z,1.60
2019-03-11T04:10:01.634Z,1.60
2019-03-11T04:13:04.555Z,1.40
2019-03-11T04:16:06.387Z,1.50
2019-03-11T04:19:08.405Z,1.40
2019-03-11T04:22:10.436Z,1.50
2019-03-11T04:25:12.204Z,1.60
2019-03-11T04:28:14.137Z,1.50
2019-03-11T04:31:16.275Z,1.60
2019-03-11T04:34:18.347Z,1.50
2019-03-11T04:37:20.280Z,1.50
2019-03-11T04:40:21.660Z,1.60
2019-03-11T04:43:22.713Z,1.40
2019-03-11T04:46:24.519Z,1.60
2019-03-11T04:49:26.614Z,1.40
2019-03-11T04:52:28.693Z,1.50
2019-03-11T04:55:30.803Z,1.50
2019-03-11T04:58:31.883Z,1.50
2019-03-11T05:01:39.130Z,1.60
2019-03-11T05:04:27.566Z,1.50
2019-03-11T05:07:29.090Z,1.50
2019-03-11T05:10:30.219Z,1.50
2019-03-11T05:13:41.281Z,1.40
2019-03-11T05:16:43.516Z,1.60
2019-03-11T05:19:45.667Z,1.70
2019-03-11T05:22:47.859Z,1.50
2019-03-11T05:25:48.911Z,1.70
2019-03-11T05:28:58.900Z,1.60
2019-03-11T05:32:09.115Z,1.60
2019-03-11T05:34:56.469Z,1.70
2019-03-11T05:37:58.058Z,1.70
2019-03-11T05:40:59.239Z,1.70
2019-03-11T05:44:06.320Z,1.70
2019-03-11T05:47:17.595Z,1.70
2019-03-11T05:50:19.550Z,1.70
2019-03-11T05:53:21.744Z,1.70
2019-03-11T05:56:23.651Z,1.70
2019-03-11T05:59:26.721Z,1.70
2019-03-11T06:02:27.963Z,1.70
2019-03-11T06:05:29.054Z,1.70
2019-03-11T06:08:31.223Z,1.80
2019-03-11T06:11:33.172Z,1.60
2019-03-11T06:14:34.517Z,1.60
2019-03-11T06:17:45.861Z,1.40
2019-03-11T06:20:52.406Z,1.40
2019-03-11T06:23:53.908Z,1.40
2019-03-11T06:27:04.023Z,0.90
2019-03-11T06:30:15.466Z,1.10
2019-03-11T06:33:17.368Z,1.10
2019-03-11T06:36:19.508Z,1.10
2019-03-11T06:39:20.715Z,1.00
2019-03-11T06:42:31.736Z,1.10
2019-03-11T06:45:32.519Z,1.10
2019-03-11T06:48:43.805Z,1.10
2019-03-11T06:51:46.000Z,1.00
2019-03-11T06:54:47.787Z,0.90
2019-03-11T06:57:48.818Z,0.80
2019-03-11T07:00:51.877Z,0.90
2019-03-11T07:03:52.859Z,1.00
2019-03-11T07:06:55.928Z,1.00
2019-03-11T07:09:43.357Z,0.90
2019-03-11T07:12:44.954Z,0.80
2019-03-11T07:15:47.024Z,0.60
2019-03-11T07:18:48.172Z,0.60
2019-03-11T07:21:59.311Z,0.40
2019-03-11T07:25:02.333Z,0.30
2019-03-11T07:28:05.343Z,0.40
2019-03-11T07:31:07.522Z,0.50
2019-03-11T07:34:18.573Z,0.50
2019-03-11T07:37:31.767Z,0.50
2019-03-11T07:40:33.092Z,0.60
2019-03-11T07:43:35.068Z,0.80
2019-03-11T07:46:37.051Z,0.70
2019-03-11T07:49:38.979Z,0.90
2019-03-11T07:52:40.983Z,1.00
2019-03-11T07:55:28.599Z,1.30
2019-03-11T07:58:30.080Z,1.40
2019-03-11T08:01:36.965Z,1.60
2019-03-11T08:04:45.001Z,1.70
2019-03-11T08:07:47.040Z,1.90
2019-03-11T08:10:48.073Z,2.10
2019-03-11T08:13:59.259Z,2.30
2019-03-11T08:17:00.395Z,2.30
2019-03-11T08:20:02.571Z,2.30
2019-03-11T08:23:04.804Z,2.20
2019-03-11T08:26:07.755Z,2.00
2019-03-11T08:29:08.973Z,2.10
2019-03-11T08:32:16.262Z,2.00
2019-03-11T08:35:23.464Z,2.10
2019-03-11T08:38:25.721Z,2.10
2019-03-11T08:41:27.859Z,2.00
2019-03-11T08:44:29.969Z,2.00
2019-03-11T08:47:31.764Z,2.20
2019-03-11T08:50:33.724Z,2.20
2019-03-11T08:53:34.731Z,2.30
2019-03-11T08:56:45.863Z,2.30
2019-03-11T08:59:48.999Z,2.60
2019-03-11T09:02:50.756Z,2.70
2019-03-11T09:05:51.717Z,2.50
2019-03-11T09:08:59.032Z,2.60
2019-03-11T09:12:00.225Z,2.50
2019-03-11T09:15:07.624Z,2.40
2019-03-11T09:18:09.741Z,2.60
2019-03-11T09:21:11.672Z,2.60
2019-03-11T09:24:19.045Z,2.50
2019-03-11T09:27:16.723Z,2.80
2019-03-11T09:30:18.782Z,2.90
2019-03-11T09:33:21.044Z,3.30
2019-03-11T09:36:22.199Z,3.30
2019-03-11T09:39:23.309Z,3.20
2019-03-11T09:42:33.768Z,3.20
2019-03-11T09:45:41.109Z,3.00
2019-03-11T09:48:44.755Z,2.80
2019-03-11T09:51:45.335Z,2.80
2019-03-11T09:54:46.728Z,3.20
2019-03-11T09:57:49.039Z,3.30
2019-03-11T10:00:51.041Z,3.80
2019-03-11T10:03:53.079Z,3.60
2019-03-11T10:06:54.304Z,3.70
2019-03-11T10:10:04.605Z,3.40
2019-03-11T10:13:06.757Z,3.40
2019-03-11T10:16:07.922Z,3.30
2019-03-11T10:19:19.203Z,3.90
2019-03-11T10:22:21.356Z,4.20
2019-03-11T10:25:23.200Z,4.30
2019-03-11T10:28:24.412Z,4.40
2019-03-11T10:31:26.623Z,4.40
2019-03-11T10:34:28.771Z,4.20
2019-03-11T10:37:30.875Z,4.00
2019-03-11T10:40:33.059Z,4.20
2019-03-11T10:43:35.353Z,4.20
2019-03-11T10:46:37.636Z,4.50
2019-03-11T10:49:39.764Z,4.70
2019-03-11T10:52:41.888Z,4.60
2019-03-11T10:55:43.818Z,4.20
2019-03-11T10:58:46.091Z,4.50
2019-03-11T11:01:48.095Z,4.60
2019-03-11T11:04:49.300Z,4.80
2019-03-11T11:07:55.432Z,5.00
2019-03-11T11:11:02.652Z,5.10
2019-03-11T11:14:04.865Z,5.20
2019-03-11T11:17:07.040Z,4.80
2019-03-11T11:20:08.333Z,5.00
2019-03-11T11:23:10.412Z,5.20
2019-03-11T11:26:12.748Z,5.20
2019-03-11T11:29:13.772Z,5.00
2019-03-11T11:32:24.804Z,5.10
2019-03-11T11:35:26.944Z,4.90
2019-03-11T11:38:27.825Z,4.90
2019-03-11T11:41:39.161Z,4.00
2019-03-11T11:44:41.243Z,3.20
2019-03-11T11:47:28.721Z,3.20
2019-03-11T11:50:30.304Z,3.10
2019-03-11T11:53:31.457Z,3.20
2019-03-11T11:56:42.362Z,3.40
2019-03-11T11:59:53.500Z,3.60
2019-03-11T12:02:47.955Z,3.60
2019-03-11T12:05:49.878Z,3.90
2019-03-11T12:08:51.797Z,4.00
2019-03-11T12:11:53.735Z,4.30
2019-03-11T12:14:41.175Z,4.60
2019-03-11T12:17:42.796Z,4.50
2019-03-11T12:20:45.127Z,4.00
2019-03-11T12:23:47.211Z,3.10
2019-03-11T12:26:48.242Z,2.60
2019-03-11T12:29:59.412Z,2.10
2019-03-11T12:33:01.614Z,1.80
2019-03-11T12:36:03.328Z,1.50
2019-03-11T12:39:05.475Z,1.50
2019-03-11T12:42:07.588Z,1.60
2019-03-11T12:45:14.807Z,1.90
2019-03-11T12:48:16.799Z,2.10
2019-03-11T12:51:17.772Z,2.30
2019-03-11T12:54:24.935Z,2.50
2019-03-11T12:57:32.304Z,2.40
2019-03-11T13:00:33.128Z,2.20
2019-03-11T13:03:40.244Z,1.90
2019-03-11T13:06:42.278Z,2.00
2019-03-11T13:09:44.387Z,1.70
2019-03-11T13:12:46.567Z,1.70
2019-03-11T13:15:48.560Z,1.80
2019-03-11T13:18:50.644Z,1.60
2019-03-11T13:21:52.603Z,1.60
2019-03-11T13:24:54.427Z,1.50
2019-03-11T13:27:55.716Z,1.60
2019-03-11T13:30:57.882Z,1.60
2019-03-11T13:34:00.947Z,1.70
2019-03-11T13:37:03.028Z,1.90
2019-03-11T13:40:05.027Z,2.10
2019-03-11T13:43:06.110Z,2.20
2019-03-11T13:46:13.350Z,2.40
2019-03-11T13:49:14.432Z,2.60
2019-03-11T13:52:25.405Z,2.70
2019-03-11T13:55:36.659Z,2.60
2019-03-11T13:58:37.816Z,2.10
2019-03-11T14:01:38.967Z,2.00
2019-03-11T14:04:50.412Z,1.50
2019-03-11T14:07:51.941Z,1.60
2019-03-11T14:10:54.024Z,1.60
2019-03-11T14:13:55.936Z,1.40
2019-03-11T14:16:58.149Z,1.80
2019-03-11T14:20:00.375Z,1.70
2019-03-11T14:23:01.452Z,1.80
2019-03-11T14:26:08.551Z,1.80
2019-03-11T14:29:09.699Z,2.20
2019-03-11T14:32:12.886Z,2.40
2019-03-11T14:35:14.755Z,2.40
2019-03-11T14:38:25.241Z,2.40
2019-03-11T14:41:27.467Z,2.40
2019-03-11T14:44:28.716Z,2.20
2019-03-11T14:47:39.079Z,2.20
2019-03-11T14:50:50.360Z,2.00
2019-03-11T14:53:52.201Z,2.10
2019-03-11T14:56:54.517Z,2.10
2019-03-11T14:59:56.471Z,2.20
2019-03-11T15:02:59.496Z,2.30
2019-03-11T15:06:00.490Z,2.30
2019-03-11T15:09:11.656Z,2.40
2019-03-11T15:12:13.783Z,2.50
2019-03-11T15:15:14.868Z,2.40
2019-03-11T15:18:25.076Z,2.40
2019-03-11T15:21:12.571Z,2.40
2019-03-11T15:24:13.911Z,2.30
2019-03-11T15:27:15.916Z,2.50
2019-03-11T15:30:17.900Z,2.50
2019-03-11T15:33:19.158Z,2.40
2019-03-11T15:36:33.702Z,2.30
2019-03-11T15:39:34.515Z,2.30
2019-03-11T15:42:35.682Z,2.30
2019-03-11T15:45:46.532Z,2.10
2019-03-11T15:48:48.436Z,2.10
2019-03-11T15:51:49.708Z,1.90
2019-03-11T15:54:57.020Z,2.00
2019-03-11T15:57:59.207Z,1.90
2019-03-11T16:01:00.354Z,1.90
2019-03-11T16:04:11.516Z,2.10
2019-03-11T16:07:12.590Z,2.10
2019-03-11T16:10:17.103Z,2.00
2019-03-11T16:13:17.031Z,1.90
2019-03-11T16:16:19.035Z,1.90
2019-03-11T16:19:21.116Z,2.00
2019-03-11T16:22:24.326Z,1.90
2019-03-11T16:25:25.425Z,1.90
2019-03-11T16:28:28.148Z,2.00
2019-03-11T16:31:30.425Z,2.10
2019-03-11T16:34:41.368Z,2.10
2019-03-11T16:37:42.467Z,2.10
2019-03-11T16:40:44.277Z,2.10
2019-03-11T16:43:46.112Z,2.20
2019-03-11T16:46:48.317Z,2.10
2019-03-11T16:49:50.467Z,2.00
2019-03-11T16:52:51.534Z,2.10
2019-03-11T16:55:52.840Z,2.10
2019-03-11T16:58:54.058Z,2.10
2019-03-11T17:01:57.283Z,2.10
2019-03-11T17:04:59.660Z,2.10
2019-03-11T17:08:01.848Z,2.20
2019-03-11T17:11:03.860Z,2.20
2019-03-11T17:14:05.762Z,2.10
2019-03-11T17:17:06.896Z,2.00
2019-03-11T17:20:17.921Z,2.00
2019-03-11T17:23:19.948Z,1.90
2019-03-11T17:26:21.011Z,1.80
2019-03-11T17:29:28.179Z,1.70
2019-03-11T17:32:29.169Z,1.60
2019-03-11T17:35:40.207Z,1.60
2019-03-11T17:38:42.345Z,1.70
2019-03-11T17:41:43.458Z,1.60
2019-03-11T17:44:54.555Z,1.60
2019-03-11T17:47:55.880Z,1.70
2019-03-11T17:51:06.887Z,1.60
2019-03-11T17:54:13.919Z,1.80
2019-03-11T17:57:15.939Z,1.70
2019-03-11T18:00:20.799Z,1.60
2019-03-11T18:03:21.947Z,1.60
2019-03-11T18:06:33.072Z,1.70
2019-03-11T18:09:35.104Z,1.70
2019-03-11T18:12:36.343Z,1.70
2019-03-11T18:15:47.542Z,1.50
2019-03-11T18:18:49.603Z,1.40
2019-03-11T18:21:56.828Z,1.50
2019-03-11T18:25:04.151Z,1.40
2019-03-11T18:28:06.435Z,1.40
2019-03-11T18:31:10.380Z,1.60
2019-03-11T18:34:12.404Z,1.50
2019-03-11T18:37:14.537Z,1.50
2019-03-11T18:40:16.624Z,1.60
2019-03-11T18:43:20.936Z,1.70
2019-03-11T18:46:21.683Z,1.70
2019-03-11T18:49:22.929Z,1.70
2019-03-11T18:52:34.222Z,1.70
2019-03-11T18:55:36.035Z,1.80
2019-03-11T18:58:37.247Z,1.70
2019-03-11T19:01:38.340Z,1.60
2019-03-11T19:04:40.486Z,1.60
2019-03-11T19:07:42.612Z,1.50
2019-03-11T19:10:44.589Z,1.50
2019-03-11T19:13:46.904Z,1.40
2019-03-11T19:16:48.440Z,1.30
2019-03-11T19:20:00.568Z,1.30
2019-03-11T19:23:02.302Z,1.30
2019-03-11T19:26:04.360Z,1.40
2019-03-11T19:29:05.483Z,1.40
2019-03-11T19:32:15.543Z,1.60
2019-03-11T19:35:17.568Z,1.60
2019-03-11T19:38:21.732Z,1.60
2019-03-11T19:41:23.032Z,1.60
2019-03-11T19:44:24.204Z,1.70
2019-03-11T19:47:26.543Z,1.70
2019-03-11T19:50:28.005Z,1.70
2019-03-11T19:53:35.726Z,1.60
2019-03-11T19:56:38.103Z,1.60
2019-03-11T19:59:40.065Z,1.60
2019-03-11T20:02:42.175Z,1.60
2019-03-11T20:05:44.195Z,1.70
2019-03-11T20:08:46.184Z,1.70
2019-03-11T20:11:49.081Z,1.80
2019-03-11T20:14:51.304Z,1.80
2019-03-11T20:17:52.650Z,1.90
2019-03-11T20:20:54.551Z,1.90
2019-03-11T20:23:55.733Z,1.90
2019-03-11T20:27:08.088Z,1.80
2019-03-11T20:30:09.272Z,1.80
2019-03-11T20:33:20.587Z,1.80
2019-03-11T20:36:24.922Z,1.70
2019-03-11T20:39:25.607Z,1.60
2019-03-11T20:42:27.729Z,1.50
2019-03-11T20:45:28.843Z,1.40
2019-03-11T20:48:35.870Z,1.30
2019-03-11T20:51:36.916Z,1.20
2019-03-11T20:54:39.200Z,1.30
2019-03-11T20:57:43.478Z,1.30
2019-03-11T21:00:44.922Z,1.40
2019-03-11T21:03:45.844Z,1.20
2019-03-11T21:06:53.074Z,1.20
2019-03-11T21:09:56.081Z,1.20
2019-03-11T21:12:57.172Z,1.20
2019-03-11T21:16:08.515Z,1.30
2019-03-11T21:19:10.033Z,1.10
2019-03-11T21:22:13.840Z,1.10
2019-03-11T21:25:14.924Z,1.00
2019-03-11T21:28:16.956Z,1.10
2019-03-11T21:31:28.068Z,1.00
2019-03-11T21:34:29.274Z,1.00
2019-03-11T21:37:37.520Z,1.10
2019-03-11T21:40:39.739Z,0.90
2019-03-11T21:43:41.574Z,0.90
2019-03-11T21:46:42.603Z,0.90
2019-03-11T21:49:53.879Z,1.00
2019-03-11T21:52:54.963Z,1.00
2019-03-11T21:56:06.040Z,1.20
2019-03-11T21:59:08.025Z,1.20
2019-03-11T22:02:08.957Z,1.20
2019-03-11T22:05:11.121Z,1.20
2019-03-11T22:08:13.210Z,1.10
2019-03-11T22:11:15.120Z,1.10
2019-03-11T22:14:16.175Z,1.00
2019-03-11T22:17:17.256Z,1.10
2019-03-11T22:20:19.635Z,1.10
2019-03-11T22:23:20.707Z,1.00
2019-03-11T22:26:31.804Z,1.10
2019-03-11T22:29:33.988Z,1.10
2019-03-11T22:32:35.295Z,1.10
2019-03-11T22:35:37.131Z,1.10
2019-03-11T22:38:38.291Z,1.00
2019-03-11T22:41:39.534Z,1.00
2019-03-11T22:44:41.440Z,1.00
2019-03-11T22:47:45.323Z,1.00
2019-03-11T22:50:46.636Z,1.10
2019-03-11T22:53:51.548Z,1.00
2019-03-11T22:56:51.815Z,0.90
2019-03-11T22:59:52.699Z,1.10
2019-03-11T23:02:59.786Z,1.10
2019-03-11T23:06:00.854Z,1.10
2019-03-11T23:09:11.928Z,1.10
2019-03-11T23:12:13.105Z,1.10
2019-03-11T23:15:23.983Z,1.00
2019-03-11T23:18:26.063Z,1.10
2019-03-11T23:21:27.099Z,1.00
2019-03-11T23:24:29.270Z,1.10
2019-03-11T23:27:30.880Z,1.00
2019-03-11T23:30:34.586Z,0.90
2019-03-11T23:33:36.808Z,0.80
2019-03-11T23:36:40.808Z,0.90
2019-03-11T23:39:42.683Z,0.90
2019-03-11T23:42:44.597Z,0.90
2019-03-11T23:45:46.676Z,0.90
2019-03-11T23:48:49.083Z,1.00
2019-03-11T23:51:50.256Z,0.90
2019-03-11T23:54:57.460Z,0.90
2019-03-11T23:57:59.363Z,0.90
